createdAt,value
2022-10-10T00:00:48.475Z,4.43
2022-10-10T00:03:15.257Z,4.36
2022-10-10T00:05:42.800Z,4.33
2022-10-10T00:08:10.356Z,4.49
2022-10-10T00:10:37.399Z,4.37
2022-10-10T00:13:04.956Z,4.31
2022-10-10T00:15:31.732Z,4.33
2022-10-10T00:17:58.410Z,4.32
2022-10-10T00:20:25.010Z,4.32
2022-10-10T00:22:51.971Z,4.23
2022-10-10T00:25:19.147Z,4.36
2022-10-10T00:27:45.774Z,4.28
2022-10-10T00:30:12.680Z,4.29
2022-10-10T00:32:39.327Z,4.36
2022-10-10T00:35:06.695Z,4.30
2022-10-10T00:37:33.347Z,4.30
2022-10-10T00:39:59.973Z,4.33
2022-10-10T00:42:26.602Z,4.40
2022-10-10T00:45:22.658Z,4.40
2022-10-10T00:47:50.219Z,4.36
2022-10-10T00:50:18.812Z,4.33
2022-10-10T00:52:45.906Z,4.29
2022-10-10T00:55:12.993Z,4.29
2022-10-10T00:57:39.761Z,4.40
2022-10-10T01:00:07.470Z,4.30
2022-10-10T01:02:34.479Z,4.37
2022-10-10T01:05:01.086Z,4.41
2022-10-10T01:07:31.261Z,4.39
2022-10-10T01:10:01.821Z,4.42
2022-10-10T01:12:41.130Z,4.43
2022-10-10T01:15:29.914Z,4.54
2022-10-10T01:18:11.679Z,4.62
2022-10-10T01:21:28.004Z,4.75
2022-10-10T01:24:13.727Z,4.63
2022-10-10T01:26:49.415Z,4.57
2022-10-10T01:29:31.598Z,4.61
2022-10-10T01:32:05.641Z,4.62
2022-10-10T01:34:40.468Z,4.77
2022-10-10T01:37:19.159Z,4.82
2022-10-10T01:39:52.557Z,4.76
2022-10-10T01:42:29.360Z,4.74
2022-10-10T01:44:56.350Z,4.92
2022-10-10T01:47:23.207Z,4.95
2022-10-10T01:49:52.673Z,4.98
2022-10-10T01:52:44.234Z,4.90
2022-10-10T01:55:20.216Z,4.91
2022-10-10T01:57:59.096Z,4.88
2022-10-10T02:00:26.165Z,4.93
2022-10-10T02:03:07.578Z,4.95
2022-10-10T02:05:41.247Z,4.88
2022-10-10T02:08:19.732Z,4.90
2022-10-10T02:10:52.881Z,5.02
2022-10-10T02:13:21.561Z,4.97
2022-10-10T02:15:52.049Z,5.03
2022-10-10T02:18:21.180Z,5.09
2022-10-10T02:20:48.961Z,4.93
2022-10-10T02:23:17.100Z,4.87
2022-10-10T02:25:47.775Z,4.86
2022-10-10T02:28:17.497Z,4.93
2022-10-10T02:30:47.232Z,5.00
2022-10-10T02:33:20.821Z,5.02
2022-10-10T02:35:49.486Z,4.95
2022-10-10T02:38:17.261Z,4.94
2022-10-10T02:40:45.275Z,5.01
2022-10-10T02:43:12.407Z,4.97
2022-10-10T02:45:40.011Z,4.95
2022-10-10T02:48:06.881Z,5.04
2022-10-10T02:50:33.522Z,5.03
2022-10-10T02:53:00.255Z,5.08
2022-10-10T02:55:27.245Z,4.99
2022-10-10T02:57:53.934Z,5.14
2022-10-10T03:00:20.633Z,5.04
2022-10-10T03:02:47.414Z,5.09
2022-10-10T03:05:14.334Z,5.01
2022-10-10T03:07:40.939Z,5.05
2022-10-10T03:10:07.880Z,4.94
2022-10-10T03:12:35.370Z,5.11
2022-10-10T03:15:02.270Z,4.97
2022-10-10T03:17:28.850Z,4.97
2022-10-10T03:19:55.425Z,4.86
2022-10-10T03:22:22.023Z,4.83
2022-10-10T03:24:48.620Z,4.75
2022-10-10T03:27:15.184Z,4.82
2022-10-10T03:29:41.794Z,4.83
2022-10-10T03:32:11.015Z,4.79
2022-10-10T03:34:37.884Z,4.76
2022-10-10T03:37:04.586Z,4.77
2022-10-10T03:39:31.167Z,4.88
2022-10-10T03:41:57.843Z,4.88
2022-10-10T03:44:24.466Z,4.85
2022-10-10T03:46:51.045Z,4.75
2022-10-10T03:49:17.914Z,4.66
2022-10-10T03:51:44.542Z,4.64
2022-10-10T03:54:11.145Z,4.78
2022-10-10T03:56:37.740Z,4.78
2022-10-10T03:59:06.217Z,4.63
2022-10-10T04:01:33.615Z,4.72
2022-10-10T04:04:00.342Z,4.69
2022-10-10T04:06:28.271Z,4.56
2022-10-10T04:08:57.504Z,4.67
2022-10-10T04:11:24.237Z,4.56
2022-10-10T04:13:50.832Z,4.45
2022-10-10T04:16:17.395Z,4.50
2022-10-10T04:18:44.000Z,4.36
2022-10-10T04:21:11.426Z,4.45
2022-10-10T04:23:38.162Z,4.44
2022-10-10T04:26:04.837Z,4.34
2022-10-10T04:28:31.541Z,4.42
2022-10-10T04:30:58.221Z,4.28
2022-10-10T04:33:24.868Z,4.15
2022-10-10T04:35:51.483Z,4.15
2022-10-10T04:38:19.840Z,4.13
2022-10-10T04:40:49.069Z,4.01
2022-10-10T04:43:15.693Z,4.05
2022-10-10T04:45:42.314Z,3.88
2022-10-10T04:48:08.890Z,3.84
2022-10-10T04:50:35.477Z,3.79
2022-10-10T04:53:02.184Z,3.91
2022-10-10T04:55:28.760Z,3.92
2022-10-10T04:57:55.347Z,3.79
2022-10-10T05:00:21.959Z,3.74
2022-10-10T05:02:48.807Z,3.91
2022-10-10T05:05:15.794Z,4.04
2022-10-10T05:07:42.375Z,3.84
2022-10-10T05:10:09.505Z,3.83
2022-10-10T05:12:36.091Z,3.83
2022-10-10T05:15:02.699Z,3.76
2022-10-10T05:17:29.290Z,3.75
2022-10-10T05:19:55.895Z,3.86
2022-10-10T05:22:22.483Z,3.74
2022-10-10T05:24:49.114Z,3.86
2022-10-10T05:27:15.697Z,3.85
2022-10-10T05:29:42.274Z,4.03
2022-10-10T05:32:10.502Z,4.11
2022-10-10T05:34:37.989Z,4.11
2022-10-10T05:37:04.672Z,3.99
2022-10-10T05:39:31.325Z,4.19
2022-10-10T05:41:57.964Z,4.12
2022-10-10T05:44:24.643Z,4.23
2022-10-10T05:46:51.235Z,4.20
2022-10-10T05:49:17.840Z,4.42
2022-10-10T05:51:44.437Z,4.31
2022-10-10T05:54:11.049Z,4.35
2022-10-10T05:56:37.856Z,4.47
2022-10-10T05:59:04.708Z,4.57
2022-10-10T06:01:31.470Z,4.46
2022-10-10T06:03:58.124Z,4.48
2022-10-10T06:06:25.705Z,4.65
2022-10-10T06:08:52.810Z,4.66
2022-10-10T06:11:20.642Z,4.65
2022-10-10T06:13:49.740Z,4.61
2022-10-10T06:16:16.621Z,4.71
2022-10-10T06:18:43.615Z,4.60
2022-10-10T06:21:11.853Z,4.83
2022-10-10T06:23:38.747Z,4.79
2022-10-10T06:26:05.473Z,4.82
2022-10-10T06:28:32.486Z,4.92
2022-10-10T06:31:01.068Z,4.92
2022-10-10T06:33:27.953Z,4.98
2022-10-10T06:35:55.152Z,4.94
2022-10-10T06:38:22.192Z,4.98
2022-10-10T06:40:49.052Z,5.08
2022-10-10T06:43:16.869Z,5.12
2022-10-10T06:45:45.812Z,5.31
2022-10-10T06:48:13.762Z,5.25
2022-10-10T06:50:40.357Z,5.35
2022-10-10T06:53:07.197Z,5.41
2022-10-10T06:55:33.904Z,5.45
2022-10-10T06:58:00.470Z,5.74
2022-10-10T07:00:27.162Z,5.77
2022-10-10T07:02:54.144Z,5.82
2022-10-10T07:05:20.919Z,5.96
2022-10-10T07:07:50.024Z,6.13
2022-10-10T07:10:16.663Z,6.28
2022-10-10T07:12:52.281Z,6.52
2022-10-10T07:15:18.948Z,6.69
2022-10-10T07:17:47.357Z,6.68
2022-10-10T07:20:17.251Z,6.83
2022-10-10T07:22:43.811Z,6.93
2022-10-10T07:25:10.412Z,6.98
2022-10-10T07:27:37.005Z,7.17
2022-10-10T07:30:03.793Z,7.34
2022-10-10T07:32:30.366Z,7.30
2022-10-10T07:34:58.441Z,7.44
2022-10-10T07:37:25.166Z,7.48
2022-10-10T07:39:55.020Z,7.71
2022-10-10T07:42:21.988Z,7.78
2022-10-10T07:44:48.738Z,7.99
2022-10-10T07:47:15.485Z,8.21
2022-10-10T07:49:42.090Z,8.31
2022-10-10T07:52:08.734Z,8.42
2022-10-10T07:54:35.332Z,8.66
2022-10-10T07:57:01.947Z,8.67
2022-10-10T07:59:28.859Z,8.88
2022-10-10T08:01:55.527Z,9.01
2022-10-10T08:04:22.167Z,9.19
2022-10-10T08:06:49.039Z,9.19
2022-10-10T08:09:15.637Z,9.21
2022-10-10T08:11:42.201Z,9.29
2022-10-10T08:14:09.018Z,9.25
2022-10-10T08:16:35.842Z,9.47
2022-10-10T08:19:02.561Z,9.46
2022-10-10T08:21:29.174Z,9.50
2022-10-10T08:23:56.032Z,9.56
2022-10-10T08:26:22.633Z,9.52
2022-10-10T08:28:49.346Z,9.67
2022-10-10T08:31:18.917Z,9.66
2022-10-10T08:33:46.809Z,9.70
2022-10-10T08:36:16.051Z,9.90
2022-10-10T08:38:42.704Z,9.90
2022-10-10T08:41:33.206Z,10.01
2022-10-10T08:44:40.538Z,10.20
2022-10-10T08:47:10.127Z,10.37
2022-10-10T08:49:52.654Z,10.52
2022-10-10T08:52:30.525Z,10.45
2022-10-10T08:54:58.796Z,10.46
2022-10-10T08:57:48.689Z,10.53
2022-10-10T09:00:18.397Z,10.67
2022-10-10T09:02:54.151Z,10.71
2022-10-10T09:05:42.680Z,10.84
2022-10-10T09:08:26.638Z,11.00
2022-10-10T09:11:06.445Z,11.08
2022-10-10T09:13:38.913Z,11.22
2022-10-10T09:16:20.709Z,11.30
2022-10-10T09:18:59.508Z,11.35
2022-10-10T09:21:30.268Z,11.35
2022-10-10T09:24:08.619Z,11.48
2022-10-10T09:26:39.686Z,11.90
2022-10-10T09:29:39.175Z,12.33
2022-10-10T09:32:10.568Z,12.67
2022-10-10T09:34:45.526Z,12.95
2022-10-10T09:37:24.246Z,13.01
2022-10-10T09:40:00.894Z,13.22
2022-10-10T09:42:39.164Z,13.47
2022-10-10T09:45:29.007Z,13.64
2022-10-10T09:47:56.133Z,13.80
2022-10-10T09:50:23.714Z,13.83
2022-10-10T09:52:51.494Z,13.87
2022-10-10T09:55:34.944Z,13.94
2022-10-10T09:58:11.135Z,13.94
2022-10-10T10:00:37.876Z,14.12
2022-10-10T10:03:12.885Z,13.92
2022-10-10T10:05:41.931Z,13.93
2022-10-10T10:08:29.298Z,14.05
2022-10-10T10:10:58.501Z,14.01
2022-10-10T10:13:28.377Z,14.11
2022-10-10T10:16:00.689Z,14.23
2022-10-10T10:18:28.941Z,14.48
2022-10-10T10:21:14.102Z,14.68
2022-10-10T10:23:56.276Z,14.86
2022-10-10T10:26:24.505Z,15.03
2022-10-10T10:28:52.205Z,15.11
2022-10-10T10:31:31.112Z,15.14
2022-10-10T10:34:20.642Z,15.06
2022-10-10T10:36:56.168Z,15.18
2022-10-10T10:40:04.674Z,15.04
2022-10-10T10:42:37.194Z,14.93
2022-10-10T10:45:16.388Z,15.13
2022-10-10T10:48:04.294Z,15.39
2022-10-10T10:50:44.597Z,15.40
2022-10-10T10:53:18.997Z,15.61
2022-10-10T10:55:55.621Z,15.54
2022-10-10T10:59:16.011Z,15.33
2022-10-10T11:01:57.804Z,15.12
2022-10-10T11:05:18.246Z,15.08
2022-10-10T11:08:05.729Z,15.21
2022-10-10T11:10:59.316Z,15.46
2022-10-10T11:13:31.951Z,15.53
2022-10-10T11:16:20.345Z,15.72
2022-10-10T11:19:15.196Z,15.90
2022-10-10T11:21:47.013Z,16.08
2022-10-10T11:24:19.608Z,16.16
2022-10-10T11:26:49.674Z,16.29
2022-10-10T11:29:20.429Z,16.24
2022-10-10T11:32:08.543Z,16.22
2022-10-10T11:34:41.599Z,16.16
2022-10-10T11:37:14.196Z,16.07
2022-10-10T11:40:22.378Z,16.02
2022-10-10T11:42:55.455Z,15.93
2022-10-10T11:45:28.163Z,15.85
2022-10-10T11:48:12.625Z,15.76
2022-10-10T11:50:40.418Z,15.69
2022-10-10T11:53:35.048Z,15.72
2022-10-10T11:56:14.006Z,15.95
2022-10-10T11:58:43.568Z,16.28
2022-10-10T12:01:27.764Z,16.29
2022-10-10T12:03:56.144Z,16.38
2022-10-10T12:06:36.876Z,16.56
2022-10-10T12:09:08.639Z,16.64
2022-10-10T12:12:01.393Z,16.69
2022-10-10T12:14:31.232Z,16.64
2022-10-10T12:16:58.583Z,16.48
2022-10-10T12:19:27.435Z,16.55
2022-10-10T12:22:01.957Z,16.53
2022-10-10T12:24:31.299Z,16.49
2022-10-10T12:26:57.777Z,16.53
2022-10-10T12:29:41.152Z,16.41
2022-10-10T12:32:13.638Z,16.52
2022-10-10T12:34:42.716Z,16.47
2022-10-10T12:37:30.766Z,16.41
2022-10-10T12:40:06.445Z,16.49
2022-10-10T12:42:33.017Z,16.54
2022-10-10T12:44:59.696Z,16.47
2022-10-10T12:48:04.522Z,16.58
2022-10-10T12:50:38.353Z,16.61
2022-10-10T12:53:07.333Z,16.59
2022-10-10T12:55:54.780Z,16.66
2022-10-10T12:58:34.627Z,16.53
2022-10-10T13:01:04.716Z,16.59
2022-10-10T13:03:35.869Z,16.66
2022-10-10T13:06:14.277Z,16.67
2022-10-10T13:08:41.510Z,16.69
2022-10-10T13:11:15.126Z,16.73
2022-10-10T13:13:53.904Z,16.76
2022-10-10T13:16:31.155Z,16.72
2022-10-10T13:19:00.285Z,16.65
2022-10-10T13:21:33.937Z,16.56
2022-10-10T13:24:04.036Z,16.58
2022-10-10T13:26:37.135Z,16.52
2022-10-10T13:29:18.439Z,16.59
2022-10-10T13:31:45.347Z,16.55
2022-10-10T13:34:15.842Z,16.50
2022-10-10T13:36:43.434Z,16.47
2022-10-10T13:39:15.794Z,16.46
2022-10-10T13:41:46.279Z,16.48
2022-10-10T13:44:15.326Z,16.46
2022-10-10T13:46:42.261Z,16.38
2022-10-10T13:49:25.688Z,16.30
2022-10-10T13:52:15.337Z,16.19
2022-10-10T13:54:46.597Z,16.16
2022-10-10T13:57:22.802Z,16.23
2022-10-10T14:00:03.985Z,16.31
2022-10-10T14:02:32.709Z,16.19
2022-10-10T14:05:04.054Z,16.18
2022-10-10T14:07:30.935Z,16.17
2022-10-10T14:10:09.578Z,16.13
2022-10-10T14:12:41.372Z,16.17
2022-10-10T14:15:38.059Z,16.27
2022-10-10T14:18:16.553Z,16.27
2022-10-10T14:20:44.202Z,16.23
2022-10-10T14:23:11.125Z,16.29
2022-10-10T14:25:42.328Z,16.28
2022-10-10T14:28:26.810Z,16.11
2022-10-10T14:30:53.449Z,16.23
2022-10-10T14:33:20.679Z,16.27
2022-10-10T14:35:48.551Z,16.23
2022-10-10T14:38:15.700Z,16.13
2022-10-10T14:40:44.363Z,16.08
2022-10-10T14:43:10.966Z,16.04
2022-10-10T14:45:37.832Z,15.98
2022-10-10T14:48:04.726Z,15.90
2022-10-10T14:50:35.051Z,15.86
2022-10-10T14:53:01.767Z,15.71
2022-10-10T14:55:28.419Z,15.64
2022-10-10T14:57:55.014Z,15.61
2022-10-10T15:00:24.076Z,15.44
2022-10-10T15:02:50.792Z,15.33
2022-10-10T15:05:17.710Z,15.19
2022-10-10T15:07:44.912Z,15.08
2022-10-10T15:13:01.670Z,14.84
2022-10-10T15:15:28.319Z,14.61
2022-10-10T15:17:57.098Z,14.52
2022-10-10T15:20:30.472Z,14.54
2022-10-10T15:23:01.650Z,14.44
2022-10-10T15:25:33.367Z,14.35
2022-10-10T15:28:01.976Z,14.33
2022-10-10T15:30:28.705Z,14.24
2022-10-10T15:32:55.347Z,14.17
2022-10-10T15:35:23.878Z,14.12
2022-10-10T15:37:50.486Z,14.01
2022-10-10T15:40:20.622Z,13.92
2022-10-10T15:42:48.288Z,13.83
2022-10-10T15:45:19.361Z,13.66
2022-10-10T15:47:59.009Z,13.55
2022-10-10T15:50:27.091Z,13.40
2022-10-10T15:52:53.881Z,13.27
2022-10-10T15:55:20.530Z,13.20
2022-10-10T15:57:47.274Z,13.08
2022-10-10T16:00:14.837Z,12.99
2022-10-10T16:02:41.453Z,12.84
2022-10-10T16:05:10.081Z,12.71
2022-10-10T16:07:46.632Z,12.59
2022-10-10T16:10:14.481Z,12.46
2022-10-10T16:12:41.181Z,12.35
2022-10-10T16:15:08.231Z,12.25
2022-10-10T16:17:34.989Z,12.14
2022-10-10T16:20:01.842Z,12.03
2022-10-10T16:22:28.535Z,11.93
2022-10-10T16:27:42.807Z,11.75
2022-10-10T16:30:09.980Z,11.67
2022-10-10T16:32:42.026Z,11.62
2022-10-10T16:35:10.071Z,11.59
2022-10-10T16:37:36.666Z,11.61
2022-10-10T16:40:04.135Z,11.50
2022-10-10T16:42:30.869Z,11.48
2022-10-10T16:44:57.489Z,11.43
2022-10-10T16:47:24.082Z,11.36
2022-10-10T16:49:50.747Z,11.28
2022-10-10T16:52:17.382Z,11.17
2022-10-10T16:54:43.961Z,11.05
2022-10-10T16:57:12.008Z,10.98
2022-10-10T16:59:38.630Z,10.87
2022-10-10T17:02:05.998Z,10.77
2022-10-10T17:04:32.677Z,10.73
2022-10-10T17:06:59.259Z,10.62
2022-10-10T17:09:25.868Z,10.55
2022-10-10T17:11:52.469Z,10.49
2022-10-10T17:14:19.117Z,10.41
2022-10-10T17:19:32.873Z,10.24
2022-10-10T17:21:59.618Z,10.24
2022-10-10T17:24:26.406Z,10.11
2022-10-10T17:26:52.993Z,10.05
2022-10-10T17:29:19.658Z,10.00
2022-10-10T17:31:46.389Z,9.92
2022-10-10T17:34:12.953Z,9.93
2022-10-10T17:36:39.527Z,9.86
2022-10-10T17:39:07.550Z,9.76
2022-10-10T17:41:34.581Z,9.77
2022-10-10T17:44:01.262Z,9.68
2022-10-10T17:46:34.922Z,9.76
2022-10-10T17:49:06.075Z,9.68
2022-10-10T17:51:32.715Z,9.59
2022-10-10T17:54:00.494Z,9.61
2022-10-10T17:56:27.376Z,9.50
2022-10-10T17:58:54.197Z,9.41
2022-10-10T18:01:21.077Z,9.40
2022-10-10T18:03:48.439Z,9.39
2022-10-10T18:06:20.670Z,9.39
2022-10-10T18:08:48.467Z,9.27
2022-10-10T18:11:17.304Z,9.24
2022-10-10T18:13:44.479Z,9.23
2022-10-10T18:16:16.243Z,9.15
2022-10-10T18:18:49.619Z,9.07
2022-10-10T18:21:19.351Z,9.03
2022-10-10T18:23:45.975Z,8.99
2022-10-10T18:26:23.732Z,9.01
2022-10-10T18:28:53.881Z,8.95
2022-10-10T18:31:23.484Z,8.92
2022-10-10T18:33:50.420Z,8.89
2022-10-10T18:36:22.048Z,8.87
2022-10-10T18:38:48.686Z,8.85
2022-10-10T18:41:18.159Z,8.83
2022-10-10T18:43:45.030Z,8.82
2022-10-10T18:46:13.658Z,8.83
2022-10-10T18:48:40.895Z,8.88
2022-10-10T18:51:21.766Z,8.91
2022-10-10T18:53:48.687Z,8.84
2022-10-10T18:56:20.889Z,8.87
2022-10-10T18:58:47.847Z,8.78
2022-10-10T19:01:15.416Z,8.73
2022-10-10T19:03:42.791Z,8.69
2022-10-10T19:06:12.907Z,8.66
2022-10-10T19:08:40.547Z,8.68
2022-10-10T19:11:08.232Z,8.66
2022-10-10T19:13:35.315Z,8.72
2022-10-10T19:16:06.666Z,8.71
2022-10-10T19:18:34.214Z,8.66
2022-10-10T19:21:02.398Z,8.63
2022-10-10T19:23:29.641Z,8.62
2022-10-10T19:25:56.288Z,8.57
2022-10-10T19:28:23.061Z,8.55
2022-10-10T19:30:49.721Z,8.57
2022-10-10T19:33:16.314Z,8.62
2022-10-10T19:35:52.098Z,8.64
2022-10-10T19:38:19.294Z,8.67
2022-10-10T19:40:47.124Z,8.71
2022-10-10T19:43:14.546Z,8.78
2022-10-10T19:45:42.309Z,8.87
2022-10-10T19:48:08.917Z,8.93
2022-10-10T19:50:39.161Z,8.98
2022-10-10T19:53:06.316Z,9.02
2022-10-10T19:55:33.113Z,9.06
2022-10-10T19:57:59.788Z,9.13
2022-10-10T20:00:26.594Z,9.20
2022-10-10T20:02:55.913Z,9.23
2022-10-10T20:05:22.680Z,9.28
2022-10-10T20:07:52.787Z,9.36
2022-10-10T20:10:19.989Z,9.41
2022-10-10T20:12:49.804Z,9.48
2022-10-10T20:15:16.535Z,9.52
2022-10-10T20:17:43.110Z,9.57
2022-10-10T20:20:09.949Z,9.62
2022-10-10T20:22:36.833Z,9.66
2022-10-10T20:25:04.370Z,9.71
2022-10-10T20:27:31.529Z,9.76
2022-10-10T20:29:58.937Z,9.85
2022-10-10T20:32:25.729Z,9.98
2022-10-10T20:34:52.318Z,10.00
2022-10-10T20:37:19.030Z,10.06
2022-10-10T20:39:45.673Z,10.21
2022-10-10T20:42:12.352Z,10.31
2022-10-10T20:44:38.979Z,10.38
2022-10-10T20:47:06.820Z,10.45
2022-10-10T20:49:33.747Z,10.67
2022-10-10T20:52:00.380Z,10.89
2022-10-10T20:54:27.160Z,10.94
2022-10-10T20:56:54.081Z,11.09
2022-10-10T20:59:21.236Z,11.22
2022-10-10T21:01:48.296Z,11.30
2022-10-10T21:04:15.097Z,11.54
2022-10-10T21:06:45.050Z,11.59
2022-10-10T21:09:13.830Z,11.45
2022-10-10T21:11:40.879Z,11.41
2022-10-10T21:14:07.937Z,11.34
2022-10-10T21:16:36.861Z,11.43
2022-10-10T21:19:05.581Z,11.43
2022-10-10T21:21:34.559Z,11.42
2022-10-10T21:24:02.547Z,11.51
2022-10-10T21:26:30.067Z,11.59
2022-10-10T21:28:57.418Z,11.53
2022-10-10T21:31:30.082Z,11.75
2022-10-10T21:33:56.861Z,11.73
2022-10-10T21:36:25.572Z,11.82
2022-10-10T21:38:53.527Z,11.92
2022-10-10T21:41:21.006Z,11.89
2022-10-10T21:43:56.290Z,11.86
2022-10-10T21:46:35.958Z,11.98
2022-10-10T21:49:08.824Z,11.91
2022-10-10T21:51:40.644Z,11.87
2022-10-10T21:54:09.935Z,11.93
2022-10-10T21:56:36.890Z,11.84
2022-10-10T21:59:04.300Z,11.91
2022-10-10T22:01:34.433Z,11.92
2022-10-10T22:04:02.528Z,11.82
2022-10-10T22:06:32.553Z,11.83
2022-10-10T22:09:00.095Z,11.79
2022-10-10T22:11:28.358Z,11.87
2022-10-10T22:13:55.146Z,11.76
2022-10-10T22:16:22.641Z,11.80
2022-10-10T22:18:54.330Z,11.76
2022-10-10T22:21:21.550Z,11.79
2022-10-10T22:23:48.237Z,11.67
2022-10-10T22:26:16.761Z,11.75
2022-10-10T22:28:44.377Z,11.82
2022-10-10T22:31:13.802Z,11.74
2022-10-10T22:33:40.908Z,11.78
2022-10-10T22:36:08.495Z,11.68
2022-10-10T22:38:43.443Z,11.65
2022-10-10T22:41:13.375Z,11.72
2022-10-10T22:43:40.195Z,11.70
2022-10-10T22:46:07.314Z,11.67
2022-10-10T22:48:34.803Z,11.66
2022-10-10T22:51:11.114Z,11.64
2022-10-10T22:53:39.216Z,11.49
2022-10-10T22:56:07.973Z,11.47
2022-10-10T22:58:35.211Z,11.42
2022-10-10T23:01:06.524Z,11.36
2022-10-10T23:03:33.427Z,11.30
2022-10-10T23:06:00.099Z,11.25
2022-10-10T23:08:26.801Z,11.16
2022-10-10T23:10:53.470Z,11.09
2022-10-10T23:13:20.194Z,11.03
2022-10-10T23:15:46.951Z,11.07
2022-10-10T23:18:13.546Z,11.03
2022-10-10T23:20:40.176Z,11.06
2022-10-10T23:23:06.774Z,10.99
2022-10-10T23:25:33.412Z,10.89
2022-10-10T23:28:03.056Z,10.88
2022-10-10T23:30:29.752Z,10.82
2022-10-10T23:32:56.360Z,10.76
2022-10-10T23:35:22.954Z,10.58
2022-10-10T23:37:49.637Z,10.55
2022-10-10T23:40:16.277Z,10.49
2022-10-10T23:42:42.912Z,10.48
2022-10-10T23:45:09.966Z,10.43
2022-10-10T23:47:36.563Z,10.30
2022-10-10T23:50:07.100Z,10.19
2022-10-10T23:52:33.736Z,10.18
2022-10-10T23:55:00.399Z,10.05
2022-10-10T23:57:27.003Z,9.99
2022-10-10T23:59:53.602Z,10.00
